sensor_id;sensor_type;location;lat;lon;timestamp;temperature;humidity
997;DHT22;487;50.126;8.698;2023-06-22T04:01:53;23.00;79.60
997;DHT22;487;50.126;8.698;2023-06-22T04:04:21;22.80;84.80
997;DHT22;487;50.126;8.698;2023-06-22T04:09:18;22.90;89.40
997;DHT22;487;50.126;8.698;2023-06-22T04:11:46;22.80;90.30
997;DHT22;487;50.126;8.698;2023-06-22T04:16:42;22.90;91.00
997;DHT22;487;50.126;8.698;2023-06-22T04:19:11;22.90;96.60
997;DHT22;487;50.126;8.698;2023-06-22T04:21:43;22.90;92.60
997;DHT22;487;50.126;8.698;2023-06-22T04:24:11;22.80;98.60
997;DHT22;487;50.126;8.698;2023-06-22T04:26:40;22.90;94.10
997;DHT22;487;50.126;8.698;2023-06-22T04:29:12;22.80;94.40
997;DHT22;487;50.126;8.698;2023-06-22T04:31:39;22.80;96.10
997;DHT22;487;50.126;8.698;2023-06-22T04:34:08;22.90;97.10
997;DHT22;487;50.126;8.698;2023-06-22T04:36:38;22.90;97.30
997;DHT22;487;50.126;8.698;2023-06-22T04:39:08;22.80;97.20
997;DHT22;487;50.126;8.698;2023-06-22T04:41:37;22.90;99.90
997;DHT22;487;50.126;8.698;2023-06-22T04:44:09;22.90;98.40
997;DHT22;487;50.126;8.698;2023-06-22T04:46:38;22.90;99.10
997;DHT22;487;50.126;8.698;2023-06-22T04:49:06;22.80;99.90
997;DHT22;487;50.126;8.698;2023-06-22T04:51:39;22.80;99.90
997;DHT22;487;50.126;8.698;2023-06-22T04:54:08;22.80;99.90
997;DHT22;487;50.126;8.698;2023-06-22T04:56:37;22.80;99.90
997;DHT22;487;50.126;8.698;2023-06-22T04:59:07;22.80;99.90
997;DHT22;487;50.126;8.698;2023-06-22T05:01:39;22.90;99.90
997;DHT22;487;50.126;8.698;2023-06-22T05:04:08;22.90;99.90
997;DHT22;487;50.126;8.698;2023-06-22T05:06:36;22.90;99.90
997;DHT22;487;50.126;8.698;2023-06-22T05:09:08;22.80;99.90
997;DHT22;487;50.126;8.698;2023-06-22T05:11:36;22.80;99.90
997;DHT22;487;50.126;8.698;2023-06-22T05:14:04;22.90;99.90
997;DHT22;487;50.126;8.698;2023-06-22T05:16:33;23.00;99.90
997;DHT22;487;50.126;8.698;2023-06-22T05:19:01;23.00;99.90
997;DHT22;487;50.126;8.698;2023-06-22T05:21:31;22.90;99.90
997;DHT22;487;50.126;8.698;2023-06-22T05:24:00;23.00;99.90
997;DHT22;487;50.126;8.698;2023-06-22T05:26:31;23.10;99.90
997;DHT22;487;50.126;8.698;2023-06-22T05:29:00;23.10;99.90
997;DHT22;487;50.126;8.698;2023-06-22T05:31:29;23.10;99.90
997;DHT22;487;50.126;8.698;2023-06-22T05:33:58;23.20;99.90
997;DHT22;487;50.126;8.698;2023-06-22T05:36:26;23.20;99.90
997;DHT22;487;50.126;8.698;2023-06-22T05:38:56;23.20;99.90
997;DHT22;487;50.126;8.698;2023-06-22T05:41:24;23.20;99.90
997;DHT22;487;50.126;8.698;2023-06-22T05:43:53;23.20;99.90
997;DHT22;487;50.126;8.698;2023-06-22T05:46:23;23.20;99.90
997;DHT22;487;50.126;8.698;2023-06-22T05:48:51;23.20;99.90
997;DHT22;487;50.126;8.698;2023-06-22T05:51:19;23.20;99.90
997;DHT22;487;50.126;8.698;2023-06-22T05:53:47;23.20;99.90
997;DHT22;487;50.126;8.698;2023-06-22T05:56:16;23.30;99.90
997;DHT22;487;50.126;8.698;2023-06-22T05:58:46;23.40;99.90
997;DHT22;487;50.126;8.698;2023-06-22T06:01:15;23.50;99.90
997;DHT22;487;50.126;8.698;2023-06-22T06:03:43;23.50;99.90
997;DHT22;487;50.126;8.698;2023-06-22T06:06:11;23.50;99.90
997;DHT22;487;50.126;8.698;2023-06-22T06:08:39;23.60;99.90
997;DHT22;487;50.126;8.698;2023-06-22T06:11:07;23.60;99.90
997;DHT22;487;50.126;8.698;2023-06-22T06:13:35;23.60;99.90
997;DHT22;487;50.126;8.698;2023-06-22T06:16:03;23.60;99.90
997;DHT22;487;50.126;8.698;2023-06-22T06:18:32;23.70;99.90
997;DHT22;487;50.126;8.698;2023-06-22T06:21:00;23.70;99.90
997;DHT22;487;50.126;8.698;2023-06-22T06:23:28;23.70;99.90
997;DHT22;487;50.126;8.698;2023-06-22T06:25:56;23.70;99.90
997;DHT22;487;50.126;8.698;2023-06-22T06:28:24;23.70;99.90
997;DHT22;487;50.126;8.698;2023-06-22T06:33:21;23.70;99.90
997;DHT22;487;50.126;8.698;2023-06-22T06:35:53;23.80;99.90
997;DHT22;487;50.126;8.698;2023-06-22T06:38:22;23.90;99.90
997;DHT22;487;50.126;8.698;2023-06-22T06:40:50;23.90;99.90
997;DHT22;487;50.126;8.698;2023-06-22T06:43:18;24.00;99.90
997;DHT22;487;50.126;8.698;2023-06-22T06:45:46;24.00;99.90
997;DHT22;487;50.126;8.698;2023-06-22T06:48:18;24.00;99.90
997;DHT22;487;50.126;8.698;2023-06-22T06:50:45;24.10;99.90
997;DHT22;487;50.126;8.698;2023-06-22T06:53:15;24.10;99.90
997;DHT22;487;50.126;8.698;2023-06-22T06:55:43;24.20;99.90
997;DHT22;487;50.126;8.698;2023-06-22T06:58:12;24.30;99.90
997;DHT22;487;50.126;8.698;2023-06-22T07:00:40;24.40;99.90
997;DHT22;487;50.126;8.698;2023-06-22T07:03:08;24.40;99.90
997;DHT22;487;50.126;8.698;2023-06-22T07:05:36;24.50;99.90
997;DHT22;487;50.126;8.698;2023-06-22T07:08:04;24.50;99.90
997;DHT22;487;50.126;8.698;2023-06-22T07:10:33;24.40;99.90
997;DHT22;487;50.126;8.698;2023-06-22T07:13:01;24.40;99.90
997;DHT22;487;50.126;8.698;2023-06-22T07:15:29;24.50;99.90
997;DHT22;487;50.126;8.698;2023-06-22T07:17:57;24.60;99.90
997;DHT22;487;50.126;8.698;2023-06-22T07:20:25;24.70;99.90
997;DHT22;487;50.126;8.698;2023-06-22T07:22:53;24.70;99.90
997;DHT22;487;50.126;8.698;2023-06-22T07:25:21;24.70;99.90
997;DHT22;487;50.126;8.698;2023-06-22T07:27:59;24.70;99.90
997;DHT22;487;50.126;8.698;2023-06-22T07:30:28;24.70;99.90
997;DHT22;487;50.126;8.698;2023-06-22T07:32:57;24.70;99.90
997;DHT22;487;50.126;8.698;2023-06-22T07:35:30;24.70;99.90
997;DHT22;487;50.126;8.698;2023-06-22T07:37:58;24.70;99.90
997;DHT22;487;50.126;8.698;2023-06-22T07:40:29;24.70;99.90
997;DHT22;487;50.126;8.698;2023-06-22T07:42:59;24.70;99.90
997;DHT22;487;50.126;8.698;2023-06-22T07:45:27;24.80;99.90
997;DHT22;487;50.126;8.698;2023-06-22T07:47:55;24.90;99.90
997;DHT22;487;50.126;8.698;2023-06-22T07:50:23;24.90;99.90
997;DHT22;487;50.126;8.698;2023-06-22T07:52:51;25.00;99.90
997;DHT22;487;50.126;8.698;2023-06-22T07:55:20;25.20;97.20
997;DHT22;487;50.126;8.698;2023-06-22T07:57:49;25.20;99.90
997;DHT22;487;50.126;8.698;2023-06-22T08:00:20;25.20;99.90
997;DHT22;487;50.126;8.698;2023-06-22T08:02:48;25.20;99.90
997;DHT22;487;50.126;8.698;2023-06-22T08:05:16;25.40;97.00
997;DHT22;487;50.126;8.698;2023-06-22T08:08:00;25.50;94.80
997;DHT22;487;50.126;8.698;2023-06-22T08:10:28;25.50;99.90
997;DHT22;487;50.126;8.698;2023-06-22T08:12:56;25.50;99.90
997;DHT22;487;50.126;8.698;2023-06-22T08:15:26;25.60;94.30
997;DHT22;487;50.126;8.698;2023-06-22T08:17:55;25.60;99.70
997;DHT22;487;50.126;8.698;2023-06-22T08:20:24;25.70;94.70
997;DHT22;487;50.126;8.698;2023-06-22T08:22:54;25.70;99.90
997;DHT22;487;50.126;8.698;2023-06-22T08:25:21;25.80;91.30
997;DHT22;487;50.126;8.698;2023-06-22T08:27:50;25.90;95.80
997;DHT22;487;50.126;8.698;2023-06-22T08:30:17;25.80;94.20
997;DHT22;487;50.126;8.698;2023-06-22T08:32:47;25.90;94.80
997;DHT22;487;50.126;8.698;2023-06-22T08:35:15;26.00;90.50
997;DHT22;487;50.126;8.698;2023-06-22T08:37:43;26.00;95.60
997;DHT22;487;50.126;8.698;2023-06-22T08:40:17;26.20;87.80
997;DHT22;487;50.126;8.698;2023-06-22T08:42:46;26.20;94.40
997;DHT22;487;50.126;8.698;2023-06-22T08:47:42;26.30;78.60
997;DHT22;487;50.126;8.698;2023-06-22T08:50:12;26.50;82.00
997;DHT22;487;50.126;8.698;2023-06-22T08:52:40;26.50;91.30
997;DHT22;487;50.126;8.698;2023-06-22T08:55:09;26.60;75.90
997;DHT22;487;50.126;8.698;2023-06-22T08:57:38;26.60;86.90
997;DHT22;487;50.126;8.698;2023-06-22T09:00:07;26.70;74.40
997;DHT22;487;50.126;8.698;2023-06-22T09:02:43;26.70;85.20
997;DHT22;487;50.126;8.698;2023-06-22T09:05:13;26.90;69.30
997;DHT22;487;50.126;8.698;2023-06-22T09:07:41;26.80;62.00
997;DHT22;487;50.126;8.698;2023-06-22T09:10:10;26.90;62.80
997;DHT22;487;50.126;8.698;2023-06-22T09:12:39;26.90;61.70
997;DHT22;487;50.126;8.698;2023-06-22T09:15:08;27.10;60.50
997;DHT22;487;50.126;8.698;2023-06-22T09:17:52;27.10;71.70
997;DHT22;487;50.126;8.698;2023-06-22T09:20:23;27.30;58.10
997;DHT22;487;50.126;8.698;2023-06-22T09:22:51;27.30;69.70
997;DHT22;487;50.126;8.698;2023-06-22T09:25:19;27.40;55.70
997;DHT22;487;50.126;8.698;2023-06-22T09:27:48;27.40;66.30
997;DHT22;487;50.126;8.698;2023-06-22T09:30:16;27.40;58.70
997;DHT22;487;50.126;8.698;2023-06-22T09:32:43;27.50;60.00
997;DHT22;487;50.126;8.698;2023-06-22T09:35:11;27.70;50.60
997;DHT22;487;50.126;8.698;2023-06-22T09:37:41;27.70;61.90
997;DHT22;487;50.126;8.698;2023-06-22T09:40:10;27.80;47.90
997;DHT22;487;50.126;8.698;2023-06-22T09:42:41;28.00;42.40
997;DHT22;487;50.126;8.698;2023-06-22T09:45:09;28.00;42.00
997;DHT22;487;50.126;8.698;2023-06-22T09:47:37;28.00;37.90
997;DHT22;487;50.126;8.698;2023-06-22T09:50:06;27.90;35.30
997;DHT22;487;50.126;8.698;2023-06-22T09:52:34;27.90;45.30
997;DHT22;487;50.126;8.698;2023-06-22T09:55:07;28.00;37.10
997;DHT22;487;50.126;8.698;2023-06-22T09:57:35;28.00;48.00
997;DHT22;487;50.126;8.698;2023-06-22T10:00:04;28.20;37.80
997;DHT22;487;50.126;8.698;2023-06-22T10:02:35;28.30;46.30
997;DHT22;487;50.126;8.698;2023-06-22T10:05:03;28.60;14.60
997;DHT22;487;50.126;8.698;2023-06-22T10:10:11;28.90;9.20
997;DHT22;487;50.126;8.698;2023-06-22T10:12:46;29.00;5.60
997;DHT22;487;50.126;8.698;2023-06-22T10:15:14;29.10;2.60
997;DHT22;487;50.126;8.698;2023-06-22T10:17:43;29.00;10.70
997;DHT22;487;50.126;8.698;2023-06-22T10:20:11;29.00;1.00
997;DHT22;487;50.126;8.698;2023-06-22T10:22:40;29.10;1.00
997;DHT22;487;50.126;8.698;2023-06-22T10:25:09;29.20;1.00
997;DHT22;487;50.126;8.698;2023-06-22T10:27:38;29.30;9.70
997;DHT22;487;50.126;8.698;2023-06-22T10:30:08;29.30;11.50
997;DHT22;487;50.126;8.698;2023-06-22T10:32:37;29.30;2.70
997;DHT22;487;50.126;8.698;2023-06-22T10:35:06;29.40;1.00
997;DHT22;487;50.126;8.698;2023-06-22T10:37:35;29.40;1.00
997;DHT22;487;50.126;8.698;2023-06-22T10:40:05;29.40;5.70
997;DHT22;487;50.126;8.698;2023-06-22T10:42:34;29.40;4.90
997;DHT22;487;50.126;8.698;2023-06-22T10:45:04;29.50;1.00
997;DHT22;487;50.126;8.698;2023-06-22T10:47:32;29.40;1.00
997;DHT22;487;50.126;8.698;2023-06-22T10:50:01;29.50;1.00
997;DHT22;487;50.126;8.698;2023-06-22T10:52:29;29.50;6.10
997;DHT22;487;50.126;8.698;2023-06-22T10:54:57;29.70;1.00
997;DHT22;487;50.126;8.698;2023-06-22T10:57:25;29.70;1.00
997;DHT22;487;50.126;8.698;2023-06-22T10:59:53;29.80;1.00
997;DHT22;487;50.126;8.698;2023-06-22T11:02:22;29.90;1.00
997;DHT22;487;50.126;8.698;2023-06-22T11:04:51;30.00;1.00
997;DHT22;487;50.126;8.698;2023-06-22T11:07:18;30.00;1.00
997;DHT22;487;50.126;8.698;2023-06-22T11:09:46;30.00;1.00
997;DHT22;487;50.126;8.698;2023-06-22T11:12:14;30.10;1.00
997;DHT22;487;50.126;8.698;2023-06-22T11:14:44;30.10;1.00
997;DHT22;487;50.126;8.698;2023-06-22T11:17:14;30.20;1.00
997;DHT22;487;50.126;8.698;2023-06-22T11:19:44;30.20;1.00
997;DHT22;487;50.126;8.698;2023-06-22T11:22:12;30.20;1.00
997;DHT22;487;50.126;8.698;2023-06-22T11:24:40;30.40;1.00
997;DHT22;487;50.126;8.698;2023-06-22T11:27:08;30.40;1.00
997;DHT22;487;50.126;8.698;2023-06-22T11:29:36;30.40;1.00
997;DHT22;487;50.126;8.698;2023-06-22T11:32:06;30.30;1.00
997;DHT22;487;50.126;8.698;2023-06-22T11:34:37;30.40;1.00
997;DHT22;487;50.126;8.698;2023-06-22T11:37:06;30.40;1.00
997;DHT22;487;50.126;8.698;2023-06-22T11:39:34;30.40;1.00
997;DHT22;487;50.126;8.698;2023-06-22T11:42:13;30.50;1.00
997;DHT22;487;50.126;8.698;2023-06-22T11:44:42;30.50;1.00
997;DHT22;487;50.126;8.698;2023-06-22T11:47:10;30.60;1.00
997;DHT22;487;50.126;8.698;2023-06-22T11:49:38;30.60;1.00
997;DHT22;487;50.126;8.698;2023-06-22T11:52:08;30.70;1.00
997;DHT22;487;50.126;8.698;2023-06-22T11:54:36;30.60;1.00
997;DHT22;487;50.126;8.698;2023-06-22T11:57:04;30.70;1.00
997;DHT22;487;50.126;8.698;2023-06-22T11:59:32;30.70;1.00
997;DHT22;487;50.126;8.698;2023-06-22T12:02:00;30.70;1.00
997;DHT22;487;50.126;8.698;2023-06-22T12:04:28;30.90;1.00
997;DHT22;487;50.126;8.698;2023-06-22T12:06:56;30.90;1.00
997;DHT22;487;50.126;8.698;2023-06-22T12:09:26;30.90;1.00
997;DHT22;487;50.126;8.698;2023-06-22T12:11:54;31.00;1.00
997;DHT22;487;50.126;8.698;2023-06-22T12:14:22;31.00;1.00
997;DHT22;487;50.126;8.698;2023-06-22T12:16:50;31.20;1.00
997;DHT22;487;50.126;8.698;2023-06-22T12:19:18;31.20;1.00
997;DHT22;487;50.126;8.698;2023-06-22T12:21:45;31.30;1.00
997;DHT22;487;50.126;8.698;2023-06-22T12:24:13;31.30;1.00
997;DHT22;487;50.126;8.698;2023-06-22T12:26:43;31.50;1.00
997;DHT22;487;50.126;8.698;2023-06-22T12:29:10;31.50;1.00
997;DHT22;487;50.126;8.698;2023-06-22T12:31:38;31.50;1.00
997;DHT22;487;50.126;8.698;2023-06-22T12:34:06;31.70;1.00
997;DHT22;487;50.126;8.698;2023-06-22T12:36:34;31.70;1.00
997;DHT22;487;50.126;8.698;2023-06-22T12:39:02;31.80;1.00
997;DHT22;487;50.126;8.698;2023-06-22T12:41:30;31.90;1.00
997;DHT22;487;50.126;8.698;2023-06-22T12:44:00;31.90;1.00
997;DHT22;487;50.126;8.698;2023-06-22T12:46:27;32.00;1.00
997;DHT22;487;50.126;8.698;2023-06-22T12:48:57;32.00;1.00
997;DHT22;487;50.126;8.698;2023-06-22T12:51:24;32.00;1.00
997;DHT22;487;50.126;8.698;2023-06-22T12:53:52;31.80;1.00
997;DHT22;487;50.126;8.698;2023-06-22T12:56:20;31.90;1.00
997;DHT22;487;50.126;8.698;2023-06-22T12:58:48;31.70;1.00
997;DHT22;487;50.126;8.698;2023-06-22T13:01:17;31.80;1.00
997;DHT22;487;50.126;8.698;2023-06-22T13:03:45;31.80;1.00
997;DHT22;487;50.126;8.698;2023-06-22T13:06:13;31.70;1.00
997;DHT22;487;50.126;8.698;2023-06-22T13:08:41;31.70;1.00
997;DHT22;487;50.126;8.698;2023-06-22T13:11:29;31.80;1.00
997;DHT22;487;50.126;8.698;2023-06-22T13:13:57;31.70;1.00
997;DHT22;487;50.126;8.698;2023-06-22T13:16:26;31.70;1.00
997;DHT22;487;50.126;8.698;2023-06-22T13:18:54;31.60;1.00
997;DHT22;487;50.126;8.698;2023-06-22T13:21:22;31.50;1.00
997;DHT22;487;50.126;8.698;2023-06-22T13:23:50;31.50;1.00
997;DHT22;487;50.126;8.698;2023-06-22T13:26:18;31.40;1.00
997;DHT22;487;50.126;8.698;2023-06-22T13:28:46;31.50;1.00
997;DHT22;487;50.126;8.698;2023-06-22T13:31:14;31.50;1.00
997;DHT22;487;50.126;8.698;2023-06-22T13:33:43;31.60;1.00
997;DHT22;487;50.126;8.698;2023-06-22T13:36:14;31.70;1.00
997;DHT22;487;50.126;8.698;2023-06-22T13:38:42;31.70;1.00
997;DHT22;487;50.126;8.698;2023-06-22T13:41:10;31.80;1.00
997;DHT22;487;50.126;8.698;2023-06-22T13:43:38;31.70;1.00
997;DHT22;487;50.126;8.698;2023-06-22T13:46:06;31.80;1.00
997;DHT22;487;50.126;8.698;2023-06-22T13:48:34;31.80;1.00
997;DHT22;487;50.126;8.698;2023-06-22T13:51:03;31.80;1.00
997;DHT22;487;50.126;8.698;2023-06-22T13:53:31;31.70;1.00
997;DHT22;487;50.126;8.698;2023-06-22T13:55:58;31.70;1.00
997;DHT22;487;50.126;8.698;2023-06-22T13:58:26;31.70;1.00
997;DHT22;487;50.126;8.698;2023-06-22T14:00:54;31.90;1.00
997;DHT22;487;50.126;8.698;2023-06-22T14:03:22;32.20;1.00
997;DHT22;487;50.126;8.698;2023-06-22T14:05:51;32.30;1.00
997;DHT22;487;50.126;8.698;2023-06-22T14:08:22;32.40;1.00
997;DHT22;487;50.126;8.698;2023-06-22T14:11:07;32.60;1.00
997;DHT22;487;50.126;8.698;2023-06-22T14:13:35;32.80;1.00
997;DHT22;487;50.126;8.698;2023-06-22T14:16:04;32.90;1.00
997;DHT22;487;50.126;8.698;2023-06-22T14:18:32;33.00;1.00
997;DHT22;487;50.126;8.698;2023-06-22T14:21:00;32.90;1.00
997;DHT22;487;50.126;8.698;2023-06-22T14:23:29;33.10;1.00
997;DHT22;487;50.126;8.698;2023-06-22T14:25:57;33.20;1.00
997;DHT22;487;50.126;8.698;2023-06-22T14:28:25;33.20;1.00
997;DHT22;487;50.126;8.698;2023-06-22T14:30:53;33.20;1.00
997;DHT22;487;50.126;8.698;2023-06-22T14:33:21;33.20;1.00
997;DHT22;487;50.126;8.698;2023-06-22T14:35:49;33.20;1.00
997;DHT22;487;50.126;8.698;2023-06-22T14:38:17;33.00;1.00
997;DHT22;487;50.126;8.698;2023-06-22T14:40:46;33.00;1.00
997;DHT22;487;50.126;8.698;2023-06-22T14:43:19;33.00;1.00
997;DHT22;487;50.126;8.698;2023-06-22T14:45:47;33.00;1.00
997;DHT22;487;50.126;8.698;2023-06-22T14:48:17;32.90;1.00
997;DHT22;487;50.126;8.698;2023-06-22T14:50:45;32.80;1.00
997;DHT22;487;50.126;8.698;2023-06-22T14:53:13;32.60;1.00
997;DHT22;487;50.126;8.698;2023-06-22T14:55:41;32.50;1.00
997;DHT22;487;50.126;8.698;2023-06-22T14:58:11;32.30;1.00
997;DHT22;487;50.126;8.698;2023-06-22T15:00:39;32.20;1.00
997;DHT22;487;50.126;8.698;2023-06-22T15:03:07;32.20;1.00
997;DHT22;487;50.126;8.698;2023-06-22T15:05:38;32.20;1.00
997;DHT22;487;50.126;8.698;2023-06-22T15:08:06;32.10;1.00
997;DHT22;487;50.126;8.698;2023-06-22T15:10:37;31.90;1.00
997;DHT22;487;50.126;8.698;2023-06-22T15:13:05;31.90;1.00
997;DHT22;487;50.126;8.698;2023-06-22T15:15:34;31.80;1.00
997;DHT22;487;50.126;8.698;2023-06-22T15:18:02;31.80;1.00
997;DHT22;487;50.126;8.698;2023-06-22T15:20:31;31.80;1.00
997;DHT22;487;50.126;8.698;2023-06-22T15:22:59;31.50;1.00
997;DHT22;487;50.126;8.698;2023-06-22T15:25:27;31.50;1.00
997;DHT22;487;50.126;8.698;2023-06-22T15:27:55;31.40;1.00
997;DHT22;487;50.126;8.698;2023-06-22T15:30:23;31.30;1.00
997;DHT22;487;50.126;8.698;2023-06-22T15:32:52;31.30;1.00
997;DHT22;487;50.126;8.698;2023-06-22T15:35:20;31.30;1.00
997;DHT22;487;50.126;8.698;2023-06-22T15:37:48;31.10;1.00
997;DHT22;487;50.126;8.698;2023-06-22T15:40:18;31.00;1.00
997;DHT22;487;50.126;8.698;2023-06-22T15:42:45;30.90;1.00
997;DHT22;487;50.126;8.698;2023-06-22T15:45:17;30.90;1.00
997;DHT22;487;50.126;8.698;2023-06-22T15:47:45;30.80;1.00
997;DHT22;487;50.126;8.698;2023-06-22T15:50:14;30.60;1.00
997;DHT22;487;50.126;8.698;2023-06-22T15:52:42;30.40;1.00
997;DHT22;487;50.126;8.698;2023-06-22T15:55:14;29.90;1.00
997;DHT22;487;50.126;8.698;2023-06-22T15:57:41;29.60;1.00
997;DHT22;487;50.126;8.698;2023-06-22T16:00:14;29.40;1.00
997;DHT22;487;50.126;8.698;2023-06-22T16:02:44;29.20;1.00
997;DHT22;487;50.126;8.698;2023-06-22T16:05:14;29.20;1.00
997;DHT22;487;50.126;8.698;2023-06-22T16:07:42;29.20;1.00
997;DHT22;487;50.126;8.698;2023-06-22T16:10:10;29.10;1.00
997;DHT22;487;50.126;8.698;2023-06-22T16:12:42;29.00;1.00
997;DHT22;487;50.126;8.698;2023-06-22T16:15:10;29.00;1.00
997;DHT22;487;50.126;8.698;2023-06-22T16:17:38;29.00;1.00
997;DHT22;487;50.126;8.698;2023-06-22T16:20:08;28.80;1.00
997;DHT22;487;50.126;8.698;2023-06-22T16:22:38;28.30;1.00
997;DHT22;487;50.126;8.698;2023-06-22T16:25:06;27.80;1.00
997;DHT22;487;50.126;8.698;2023-06-22T16:27:34;27.30;1.00
997;DHT22;487;50.126;8.698;2023-06-22T16:32:31;26.30;1.00
997;DHT22;487;50.126;8.698;2023-06-22T16:37:27;25.20;7.80
997;DHT22;487;50.126;8.698;2023-06-22T16:39:57;24.90;30.40
997;DHT22;487;50.126;8.698;2023-06-22T16:42:24;24.50;40.30
997;DHT22;487;50.126;8.698;2023-06-22T16:44:52;24.20;7.40
997;DHT22;487;50.126;8.698;2023-06-22T16:47:20;24.20;17.90
997;DHT22;487;50.126;8.698;2023-06-22T16:49:48;24.10;15.30
997;DHT22;487;50.126;8.698;2023-06-22T16:52:17;24.10;23.80
997;DHT22;487;50.126;8.698;2023-06-22T16:54:45;24.20;19.80
997;DHT22;487;50.126;8.698;2023-06-22T16:57:27;24.20;28.20
997;DHT22;487;50.126;8.698;2023-06-22T16:59:55;24.30;35.60
997;DHT22;487;50.126;8.698;2023-06-22T17:02:24;24.40;38.40
997;DHT22;487;50.126;8.698;2023-06-22T17:04:52;24.50;30.30
997;DHT22;487;50.126;8.698;2023-06-22T17:07:22;24.50;31.00
997;DHT22;487;50.126;8.698;2023-06-22T17:09:51;24.60;33.10
997;DHT22;487;50.126;8.698;2023-06-22T17:12:19;24.60;44.00
997;DHT22;487;50.126;8.698;2023-06-22T17:14:51;24.80;30.40
997;DHT22;487;50.126;8.698;2023-06-22T17:17:22;24.80;29.20
997;DHT22;487;50.126;8.698;2023-06-22T17:19:52;24.80;38.70
997;DHT22;487;50.126;8.698;2023-06-22T17:22:20;24.90;26.80
997;DHT22;487;50.126;8.698;2023-06-22T17:24:49;25.10;27.90
997;DHT22;487;50.126;8.698;2023-06-22T17:27:26;25.10;28.00
997;DHT22;487;50.126;8.698;2023-06-22T17:30:05;25.20;25.40
997;DHT22;487;50.126;8.698;2023-06-22T17:32:34;25.20;34.10
997;DHT22;487;50.126;8.698;2023-06-22T17:35:03;25.40;28.20
997;DHT22;487;50.126;8.698;2023-06-22T17:37:46;25.40;38.60
997;DHT22;487;50.126;8.698;2023-06-22T17:40:15;25.40;40.30
997;DHT22;487;50.126;8.698;2023-06-22T17:45:16;25.40;33.10
997;DHT22;487;50.126;8.698;2023-06-22T17:47:48;25.40;44.00
997;DHT22;487;50.126;8.698;2023-06-22T17:50:16;25.50;46.50
997;DHT22;487;50.126;8.698;2023-06-22T17:52:51;25.60;47.70
997;DHT22;487;50.126;8.698;2023-06-22T17:57:54;25.50;40.40
997;DHT22;487;50.126;8.698;2023-06-22T18:00:25;25.60;50.40
997;DHT22;487;50.126;8.698;2023-06-22T18:02:54;25.60;38.50
997;DHT22;487;50.126;8.698;2023-06-22T18:05:29;25.60;40.20
997;DHT22;487;50.126;8.698;2023-06-22T18:07:58;25.60;51.60
997;DHT22;487;50.126;8.698;2023-06-22T18:10:34;25.60;54.80
997;DHT22;487;50.126;8.698;2023-06-22T18:13:03;25.60;59.10
997;DHT22;487;50.126;8.698;2023-06-22T18:15:33;25.70;52.00
997;DHT22;487;50.126;8.698;2023-06-22T18:18:02;25.60;68.10
997;DHT22;487;50.126;8.698;2023-06-22T18:20:31;25.60;65.70
997;DHT22;487;50.126;8.698;2023-06-22T18:23:00;25.60;77.60
997;DHT22;487;50.126;8.698;2023-06-22T18:25:31;25.60;61.50
997;DHT22;487;50.126;8.698;2023-06-22T18:28:00;25.60;59.40
997;DHT22;487;50.126;8.698;2023-06-22T18:30:29;25.60;66.50
997;DHT22;487;50.126;8.698;2023-06-22T18:32:58;25.50;70.10
997;DHT22;487;50.126;8.698;2023-06-22T18:35:26;25.60;62.20
997;DHT22;487;50.126;8.698;2023-06-22T18:37:56;25.60;58.70
997;DHT22;487;50.126;8.698;2023-06-22T18:42:58;25.50;66.10
997;DHT22;487;50.126;8.698;2023-06-22T18:45:28;25.60;69.00
997;DHT22;487;50.126;8.698;2023-06-22T18:48:03;25.50;78.20
997;DHT22;487;50.126;8.698;2023-06-22T18:50:36;25.40;84.70
997;DHT22;487;50.126;8.698;2023-06-22T18:53:04;25.40;88.50
997;DHT22;487;50.126;8.698;2023-06-22T18:55:32;25.30;78.70
997;DHT22;487;50.126;8.698;2023-06-22T18:58:13;25.30;90.90
997;DHT22;487;50.126;8.698;2023-06-22T19:00:41;25.20;92.60
997;DHT22;487;50.126;8.698;2023-06-22T19:03:26;25.20;94.00
997;DHT22;487;50.126;8.698;2023-06-22T19:05:55;25.20;89.80
997;DHT22;487;50.126;8.698;2023-06-22T19:08:23;25.20;95.20
997;DHT22;487;50.126;8.698;2023-06-22T19:10:53;25.30;90.00
997;DHT22;487;50.126;8.698;2023-06-22T19:13:26;25.30;90.00
997;DHT22;487;50.126;8.698;2023-06-22T19:15:58;25.30;90.30
997;DHT22;487;50.126;8.698;2023-06-22T19:18:33;25.20;90.60
997;DHT22;487;50.126;8.698;2023-06-22T19:21:02;25.20;95.70
997;DHT22;487;50.126;8.698;2023-06-22T19:23:34;25.40;91.40
997;DHT22;487;50.126;8.698;2023-06-22T19:26:05;25.50;91.60
997;DHT22;487;50.126;8.698;2023-06-22T19:28:34;25.70;90.80
997;DHT22;487;50.126;8.698;2023-06-22T19:33:41;25.80;88.10
997;DHT22;487;50.126;8.698;2023-06-22T19:38:39;25.80;77.00
997;DHT22;487;50.126;8.698;2023-06-22T19:41:08;25.70;90.50
997;DHT22;487;50.126;8.698;2023-06-22T19:43:36;25.60;79.60
997;DHT22;487;50.126;8.698;2023-06-22T19:46:05;25.50;65.10
997;DHT22;487;50.126;8.698;2023-06-22T19:48:33;25.50;76.80
997;DHT22;487;50.126;8.698;2023-06-22T19:51:06;25.40;80.10
997;DHT22;487;50.126;8.698;2023-06-22T19:56:03;25.30;80.70
997;DHT22;487;50.126;8.698;2023-06-22T19:58:33;25.20;85.40
997;DHT22;487;50.126;8.698;2023-06-22T20:01:02;25.20;92.50
997;DHT22;487;50.126;8.698;2023-06-22T20:03:32;25.10;95.10
997;DHT22;487;50.126;8.698;2023-06-22T20:06:09;24.90;95.70
997;DHT22;487;50.126;8.698;2023-06-22T20:08:45;25.00;99.90
997;DHT22;487;50.126;8.698;2023-06-22T20:11:22;25.00;99.90
997;DHT22;487;50.126;8.698;2023-06-22T20:13:52;25.00;99.90
997;DHT22;487;50.126;8.698;2023-06-22T20:16:21;25.10;99.90
997;DHT22;487;50.126;8.698;2023-06-22T20:19:02;25.10;99.90
997;DHT22;487;50.126;8.698;2023-06-22T20:21:35;25.10;99.90
997;DHT22;487;50.126;8.698;2023-06-22T20:24:05;25.10;99.90
997;DHT22;487;50.126;8.698;2023-06-22T20:26:41;25.10;99.90
997;DHT22;487;50.126;8.698;2023-06-22T20:29:23;26.80;99.90
997;DHT22;487;50.126;8.698;2023-06-22T20:32:02;25.10;99.90
997;DHT22;487;50.126;8.698;2023-06-22T20:34:37;24.90;99.90
997;DHT22;487;50.126;8.698;2023-06-22T20:37:07;24.90;99.90
997;DHT22;487;50.126;8.698;2023-06-22T20:39:35;24.70;99.90
997;DHT22;487;50.126;8.698;2023-06-22T20:42:05;24.50;99.90
997;DHT22;487;50.126;8.698;2023-06-22T20:44:33;24.20;96.80
997;DHT22;487;50.126;8.698;2023-06-22T20:47:03;24.00;93.00
997;DHT22;487;50.126;8.698;2023-06-22T20:49:34;23.80;95.10
997;DHT22;487;50.126;8.698;2023-06-22T20:52:04;23.60;94.30
997;DHT22;487;50.126;8.698;2023-06-22T20:54:42;23.50;68.60
997;DHT22;487;50.126;8.698;2023-06-22T20:59:47;23.40;65.00
997;DHT22;487;50.126;8.698;2023-06-22T21:02:16;23.40;62.30
997;DHT22;487;50.126;8.698;2023-06-22T21:04:44;23.30;62.70
997;DHT22;487;50.126;8.698;2023-06-22T21:07:19;23.30;75.20
997;DHT22;487;50.126;8.698;2023-06-22T21:09:49;23.30;73.20
997;DHT22;487;50.126;8.698;2023-06-22T21:12:18;23.20;73.30
997;DHT22;487;50.126;8.698;2023-06-22T21:14:48;23.00;61.70
997;DHT22;487;50.126;8.698;2023-06-22T21:17:17;23.00;63.80
997;DHT22;487;50.126;8.698;2023-06-22T21:19:45;22.90;77.90
997;DHT22;487;50.126;8.698;2023-06-22T21:24:41;22.70;73.20
997;DHT22;487;50.126;8.698;2023-06-22T21:27:12;22.70;72.10
997;DHT22;487;50.126;8.698;2023-06-22T21:29:40;22.70;73.30
997;DHT22;487;50.126;8.698;2023-06-22T21:32:08;22.50;89.40
997;DHT22;487;50.126;8.698;2023-06-22T21:34:36;22.40;79.20